sensor_id;sensor_type;location;lat;lon;timestamp;pressure;altitude;pressure_sealevel;temperature;humidity
56992;BME280;42885;49.754;18.636;2024-02-21T00:00:40;99002.00;;;8.35;100.00
56992;BME280;42885;49.754;18.636;2024-02-21T00:03:31;99000.33;;;8.44;100.00
56992;BME280;42885;49.754;18.636;2024-02-21T00:06:20;99000.71;;;8.57;100.00
56992;BME280;42885;49.754;18.636;2024-02-21T00:09:09;99002.80;;;8.47;100.00
56992;BME280;42885;49.754;18.636;2024-02-21T00:11:58;98997.04;;;8.51;100.00
56992;BME280;42885;49.754;18.636;2024-02-21T00:14:49;98994.23;;;8.56;100.00
56992;BME280;42885;49.754;18.636;2024-02-21T00:17:38;98989.94;;;8.54;100.00
56992;BME280;42885;49.754;18.636;2024-02-21T00:20:27;98992.49;;;8.56;100.00
56992;BME280;42885;49.754;18.636;2024-02-21T00:23:17;98989.89;;;8.56;100.00
56992;BME280;42885;49.754;18.636;2024-02-21T00:26:06;98991.59;;;8.45;100.00
56992;BME280;42885;49.754;18.636;2024-02-21T00:28:56;98985.70;;;8.50;100.00
56992;BME280;42885;49.754;18.636;2024-02-21T00:31:45;98985.45;;;8.46;100.00
56992;BME280;42885;49.754;18.636;2024-02-21T00:34:34;98988.69;;;8.41;100.00
56992;BME280;42885;49.754;18.636;2024-02-21T00:37:23;98986.38;;;8.45;100.00
56992;BME280;42885;49.754;18.636;2024-02-21T00:40:13;98978.23;;;8.08;100.00
56992;BME280;42885;49.754;18.636;2024-02-21T00:43:03;98968.91;;;8.03;100.00
56992;BME280;42885;49.754;18.636;2024-02-21T00:45:53;98964.34;;;8.08;100.00
56992;BME280;42885;49.754;18.636;2024-02-21T00:48:43;98963.87;;;8.20;100.00
56992;BME280;42885;49.754;18.636;2024-02-21T00:51:32;98956.86;;;8.10;100.00
56992;BME280;42885;49.754;18.636;2024-02-21T00:54:20;98955.69;;;8.07;100.00
56992;BME280;42885;49.754;18.636;2024-02-21T00:57:10;98959.69;;;7.82;100.00
56992;BME280;42885;49.754;18.636;2024-02-21T01:00:00;98955.58;;;7.98;100.00
56992;BME280;42885;49.754;18.636;2024-02-21T01:02:49;98958.92;;;8.02;100.00
56992;BME280;42885;49.754;18.636;2024-02-21T01:05:39;98955.58;;;7.98;100.00
56992;BME280;42885;49.754;18.636;2024-02-21T01:08:28;98953.16;;;8.16;100.00
56992;BME280;42885;49.754;18.636;2024-02-21T01:11:17;98957.22;;;8.23;100.00
56992;BME280;42885;49.754;18.636;2024-02-21T01:14:06;98947.14;;;8.04;100.00
56992;BME280;42885;49.754;18.636;2024-02-21T01:16:55;98954.65;;;7.77;100.00
56992;BME280;42885;49.754;18.636;2024-02-21T01:19:47;98956.00;;;7.76;100.00
56992;BME280;42885;49.754;18.636;2024-02-21T01:22:36;98950.34;;;7.88;100.00
56992;BME280;42885;49.754;18.636;2024-02-21T01:25:25;98947.55;;;8.15;100.00
56992;BME280;42885;49.754;18.636;2024-02-21T01:28:15;98943.33;;;8.01;100.00
56992;BME280;42885;49.754;18.636;2024-02-21T01:31:04;98933.99;;;8.17;100.00
56992;BME280;42885;49.754;18.636;2024-02-21T01:33:53;98930.35;;;8.11;100.00
56992;BME280;42885;49.754;18.636;2024-02-21T01:36:42;98923.49;;;8.08;100.00
56992;BME280;42885;49.754;18.636;2024-02-21T01:39:32;98923.66;;;7.93;100.00
56992;BME280;42885;49.754;18.636;2024-02-21T01:42:21;98928.00;;;8.15;100.00
56992;BME280;42885;49.754;18.636;2024-02-21T01:45:10;98928.08;;;8.13;100.00
56992;BME280;42885;49.754;18.636;2024-02-21T01:47:59;98934.50;;;8.05;100.00
56992;BME280;42885;49.754;18.636;2024-02-21T01:50:50;98924.27;;;8.10;100.00
56992;BME280;42885;49.754;18.636;2024-02-21T01:53:42;98921.56;;;8.13;100.00
56992;BME280;42885;49.754;18.636;2024-02-21T01:56:31;98917.20;;;8.24;100.00
56992;BME280;42885;49.754;18.636;2024-02-21T01:59:21;98910.05;;;8.40;100.00
56992;BME280;42885;49.754;18.636;2024-02-21T02:02:12;98913.33;;;8.45;100.00
56992;BME280;42885;49.754;18.636;2024-02-21T02:05:01;98911.55;;;8.46;100.00
56992;BME280;42885;49.754;18.636;2024-02-21T02:07:50;98918.16;;;8.44;100.00
56992;BME280;42885;49.754;18.636;2024-02-21T02:10:40;98913.81;;;8.22;100.00
56992;BME280;42885;49.754;18.636;2024-02-21T02:13:30;98912.44;;;8.13;100.00
56992;BME280;42885;49.754;18.636;2024-02-21T02:16:19;98904.31;;;7.99;100.00
56992;BME280;42885;49.754;18.636;2024-02-21T02:19:08;98899.20;;;7.96;100.00
56992;BME280;42885;49.754;18.636;2024-02-21T02:22:09;98896.29;;;7.93;100.00
56992;BME280;42885;49.754;18.636;2024-02-21T02:24:55;98896.47;;;7.89;100.00
56992;BME280;42885;49.754;18.636;2024-02-21T02:27:44;98893.31;;;8.03;100.00
56992;BME280;42885;49.754;18.636;2024-02-21T02:30:37;98901.34;;;8.08;100.00
56992;BME280;42885;49.754;18.636;2024-02-21T02:33:26;98888.91;;;7.93;100.00
56992;BME280;42885;49.754;18.636;2024-02-21T02:36:16;98876.87;;;7.78;100.00
56992;BME280;42885;49.754;18.636;2024-02-21T02:39:06;98875.90;;;7.58;100.00
56992;BME280;42885;49.754;18.636;2024-02-21T02:41:56;98888.30;;;7.64;100.00
56992;BME280;42885;49.754;18.636;2024-02-21T02:44:45;98882.49;;;7.67;100.00
56992;BME280;42885;49.754;18.636;2024-02-21T02:47:34;98881.04;;;7.72;100.00
56992;BME280;42885;49.754;18.636;2024-02-21T02:50:25;98878.83;;;7.73;100.00
56992;BME280;42885;49.754;18.636;2024-02-21T02:53:13;98879.40;;;7.69;100.00
56992;BME280;42885;49.754;18.636;2024-02-21T02:56:03;98877.02;;;7.85;100.00
56992;BME280;42885;49.754;18.636;2024-02-21T02:58:52;98870.17;;;7.83;100.00
56992;BME280;42885;49.754;18.636;2024-02-21T03:01:42;98867.34;;;7.99;100.00
56992;BME280;42885;49.754;18.636;2024-02-21T03:04:30;98867.25;;;8.03;100.00
56992;BME280;42885;49.754;18.636;2024-02-21T03:07:20;98871.22;;;8.11;100.00
56992;BME280;42885;49.754;18.636;2024-02-21T03:10:11;98864.15;;;7.93;100.00
56992;BME280;42885;49.754;18.636;2024-02-21T03:13:01;98865.64;;;7.88;100.00
56992;BME280;42885;49.754;18.636;2024-02-21T03:15:52;98865.25;;;7.87;100.00
56992;BME280;42885;49.754;18.636;2024-02-21T03:18:42;98872.02;;;7.91;100.00
56992;BME280;42885;49.754;18.636;2024-02-21T03:21:31;98871.83;;;7.96;100.00
56992;BME280;42885;49.754;18.636;2024-02-21T03:24:20;98869.27;;;7.50;100.00
56992;BME280;42885;49.754;18.636;2024-02-21T03:27:10;98869.35;;;7.48;100.00
56992;BME280;42885;49.754;18.636;2024-02-21T03:30:00;98864.42;;;7.40;100.00
56992;BME280;42885;49.754;18.636;2024-02-21T03:32:49;98866.42;;;7.68;100.00
56992;BME280;42885;49.754;18.636;2024-02-21T03:35:38;98860.66;;;7.60;100.00
56992;BME280;42885;49.754;18.636;2024-02-21T03:38:27;98871.22;;;7.79;100.00
56992;BME280;42885;49.754;18.636;2024-02-21T03:41:16;98863.19;;;7.95;100.00
56992;BME280;42885;49.754;18.636;2024-02-21T03:44:05;98858.37;;;8.07;100.00
56992;BME280;42885;49.754;18.636;2024-02-21T03:46:55;98864.20;;;7.91;100.00
56992;BME280;42885;49.754;18.636;2024-02-21T03:49:44;98864.20;;;7.91;100.00
56992;BME280;42885;49.754;18.636;2024-02-21T03:52:33;98862.67;;;7.75;100.00
56992;BME280;42885;49.754;18.636;2024-02-21T03:55:23;98862.92;;;7.57;100.00
56992;BME280;42885;49.754;18.636;2024-02-21T03:58:12;98858.92;;;7.82;100.00
56992;BME280;42885;49.754;18.636;2024-02-21T04:01:01;98859.22;;;7.97;100.00
56992;BME280;42885;49.754;18.636;2024-02-21T04:03:50;98858.05;;;7.82;100.00
56992;BME280;42885;49.754;18.636;2024-02-21T04:06:49;98852.28;;;7.96;100.00
56992;BME280;42885;49.754;18.636;2024-02-21T04:09:39;98855.36;;;7.95;100.00
56992;BME280;42885;49.754;18.636;2024-02-21T04:12:28;98845.56;;;7.90;100.00
56992;BME280;42885;49.754;18.636;2024-02-21T04:15:17;98851.12;;;7.93;100.00
56992;BME280;42885;49.754;18.636;2024-02-21T04:18:07;98851.88;;;7.84;100.00
56992;BME280;42885;49.754;18.636;2024-02-21T04:20:56;98850.08;;;7.75;100.00
56992;BME280;42885;49.754;18.636;2024-02-21T04:23:45;98850.13;;;7.51;100.00
56992;BME280;42885;49.754;18.636;2024-02-21T04:26:34;98854.85;;;7.53;100.00
56992;BME280;42885;49.754;18.636;2024-02-21T04:29:23;98853.97;;;7.64;100.00
56992;BME280;42885;49.754;18.636;2024-02-21T04:32:12;98846.56;;;7.53;100.00
56992;BME280;42885;49.754;18.636;2024-02-21T04:35:01;98851.70;;;7.67;100.00
56992;BME280;42885;49.754;18.636;2024-02-21T04:37:50;98853.97;;;7.64;100.00
56992;BME280;42885;49.754;18.636;2024-02-21T04:40:39;98849.44;;;7.69;100.00
56992;BME280;42885;49.754;18.636;2024-02-21T04:43:28;98839.51;;;7.67;100.00
56992;BME280;42885;49.754;18.636;2024-02-21T04:46:18;98842.50;;;7.80;100.00
56992;BME280;42885;49.754;18.636;2024-02-21T04:49:07;98841.69;;;7.78;100.00
56992;BME280;42885;49.754;18.636;2024-02-21T04:51:56;98832.13;;;7.79;100.00
56992;BME280;42885;49.754;18.636;2024-02-21T04:54:46;98835.53;;;7.91;100.00
56992;BME280;42885;49.754;18.636;2024-02-21T04:57:36;98835.28;;;7.87;100.00
56992;BME280;42885;49.754;18.636;2024-02-21T05:00:24;98834.62;;;7.92;100.00
56992;BME280;42885;49.754;18.636;2024-02-21T05:03:14;98829.93;;;7.90;100.00
56992;BME280;42885;49.754;18.636;2024-02-21T05:06:03;98831.57;;;7.93;100.00
56992;BME280;42885;49.754;18.636;2024-02-21T05:08:53;98834.75;;;7.89;100.00
56992;BME280;42885;49.754;18.636;2024-02-21T05:11:43;98834.08;;;7.84;100.00
56992;BME280;42885;49.754;18.636;2024-02-21T05:14:32;98827.84;;;7.78;100.00
56992;BME280;42885;49.754;18.636;2024-02-21T05:17:21;98827.02;;;7.76;100.00
56992;BME280;42885;49.754;18.636;2024-02-21T05:20:11;98827.61;;;7.94;100.00
56992;BME280;42885;49.754;18.636;2024-02-21T05:23:00;98826.78;;;7.82;100.00
56992;BME280;42885;49.754;18.636;2024-02-21T05:25:50;98828.75;;;7.77;100.00
56992;BME280;42885;49.754;18.636;2024-02-21T05:28:39;98828.52;;;7.71;100.00
56992;BME280;42885;49.754;18.636;2024-02-21T05:34:42;98823.94;;;7.88;100.00
56992;BME280;42885;49.754;18.636;2024-02-21T05:37:31;98815.58;;;7.80;100.00
56992;BME280;42885;49.754;18.636;2024-02-21T05:40:20;98821.70;;;7.79;100.00
56992;BME280;42885;49.754;18.636;2024-02-21T05:43:09;98821.70;;;7.79;100.00
56992;BME280;42885;49.754;18.636;2024-02-21T05:45:58;98820.26;;;7.71;100.00
56992;BME280;42885;49.754;18.636;2024-02-21T05:48:47;98830.10;;;7.75;100.00
56992;BME280;42885;49.754;18.636;2024-02-21T05:51:36;98827.42;;;7.54;100.00
56992;BME280;42885;49.754;18.636;2024-02-21T05:54:26;98824.38;;;7.55;100.00
56992;BME280;42885;49.754;18.636;2024-02-21T05:57:14;98816.88;;;7.69;100.00
56992;BME280;42885;49.754;18.636;2024-02-21T06:00:05;98822.50;;;7.58;100.00
56992;BME280;42885;49.754;18.636;2024-02-21T06:02:56;98816.30;;;7.73;100.00
56992;BME280;42885;49.754;18.636;2024-02-21T06:05:45;98817.96;;;7.96;100.00
56992;BME280;42885;49.754;18.636;2024-02-21T06:08:35;98810.85;;;7.67;100.00
56992;BME280;42885;49.754;18.636;2024-02-21T06:11:23;98811.91;;;7.74;100.00
56992;BME280;42885;49.754;18.636;2024-02-21T06:14:12;98813.45;;;7.67;100.00
56992;BME280;42885;49.754;18.636;2024-02-21T06:17:01;98811.05;;;7.85;100.00
56992;BME280;42885;49.754;18.636;2024-02-21T06:19:50;98812.64;;;7.77;100.00
56992;BME280;42885;49.754;18.636;2024-02-21T06:22:40;98811.77;;;7.89;100.00
56992;BME280;42885;49.754;18.636;2024-02-21T06:25:29;98810.34;;;8.02;100.00
56992;BME280;42885;49.754;18.636;2024-02-21T06:28:18;98813.14;;;7.97;100.00
56992;BME280;42885;49.754;18.636;2024-02-21T06:31:09;98811.16;;;7.92;100.00
56992;BME280;42885;49.754;18.636;2024-02-21T06:33:58;98823.56;;;8.08;100.00
56992;BME280;42885;49.754;18.636;2024-02-21T06:36:47;98820.80;;;8.23;100.00
56992;BME280;42885;49.754;18.636;2024-02-21T06:39:35;98817.39;;;8.10;100.00
56992;BME280;42885;49.754;18.636;2024-02-21T06:42:26;98818.52;;;8.36;100.00
56992;BME280;42885;49.754;18.636;2024-02-21T06:45:16;98814.06;;;8.48;100.00
56992;BME280;42885;49.754;18.636;2024-02-21T06:48:06;98818.05;;;8.16;100.00
56992;BME280;42885;49.754;18.636;2024-02-21T06:50:56;98811.78;;;8.09;100.00
56992;BME280;42885;49.754;18.636;2024-02-21T06:53:45;98815.52;;;8.35;100.00
56992;BME280;42885;49.754;18.636;2024-02-21T06:56:34;98814.13;;;8.36;100.00
56992;BME280;42885;49.754;18.636;2024-02-21T06:59:23;98816.06;;;8.53;100.00
56992;BME280;42885;49.754;18.636;2024-02-21T07:02:12;98812.19;;;8.42;100.00
56992;BME280;42885;49.754;18.636;2024-02-21T07:05:01;98815.38;;;8.38;100.00
56992;BME280;42885;49.754;18.636;2024-02-21T07:07:50;98808.67;;;8.53;100.00
56992;BME280;42885;49.754;18.636;2024-02-21T07:10:39;98809.79;;;8.68;100.00
56992;BME280;42885;49.754;18.636;2024-02-21T07:13:29;98814.86;;;8.71;100.00
56992;BME280;42885;49.754;18.636;2024-02-21T07:16:18;98814.80;;;8.92;100.00
56992;BME280;42885;49.754;18.636;2024-02-21T07:19:08;98816.61;;;9.11;100.00
56992;BME280;42885;49.754;18.636;2024-02-21T07:21:57;98817.38;;;9.13;100.00
56992;BME280;42885;49.754;18.636;2024-02-21T07:24:46;98816.03;;;8.85;100.00
56992;BME280;42885;49.754;18.636;2024-02-21T07:27:36;98814.80;;;8.92;100.00
56992;BME280;42885;49.754;18.636;2024-02-21T07:30:26;98810.39;;;8.94;100.00
56992;BME280;42885;49.754;18.636;2024-02-21T07:33:15;98804.06;;;9.08;100.00
56992;BME280;42885;49.754;18.636;2024-02-21T07:36:11;98800.69;;;8.77;100.00
56992;BME280;42885;49.754;18.636;2024-02-21T07:39:00;98800.06;;;8.91;100.00
56992;BME280;42885;49.754;18.636;2024-02-21T07:41:49;98803.98;;;9.01;100.00
56992;BME280;42885;49.754;18.636;2024-02-21T07:44:39;98798.84;;;9.08;100.00
56992;BME280;42885;49.754;18.636;2024-02-21T07:47:28;98792.14;;;9.22;99.78
56992;BME280;42885;49.754;18.636;2024-02-21T07:50:17;98796.10;;;9.12;98.96
56992;BME280;42885;49.754;18.636;2024-02-21T07:53:05;98788.53;;;9.44;97.88
56992;BME280;42885;49.754;18.636;2024-02-21T07:55:55;98790.38;;;9.50;97.81
56992;BME280;42885;49.754;18.636;2024-02-21T07:58:44;98779.17;;;9.48;97.57
56992;BME280;42885;49.754;18.636;2024-02-21T08:01:34;98778.69;;;9.40;98.68
56992;BME280;42885;49.754;18.636;2024-02-21T08:04:23;98777.86;;;9.48;98.24
56992;BME280;42885;49.754;18.636;2024-02-21T08:07:12;98785.63;;;9.59;98.10
56992;BME280;42885;49.754;18.636;2024-02-21T08:10:02;98785.31;;;9.56;96.87
56992;BME280;42885;49.754;18.636;2024-02-21T08:12:52;98778.34;;;9.66;96.20
56992;BME280;42885;49.754;18.636;2024-02-21T08:15:42;98776.84;;;9.42;98.73
56992;BME280;42885;49.754;18.636;2024-02-21T08:18:31;98771.71;;;9.49;98.75
56992;BME280;42885;49.754;18.636;2024-02-21T08:21:22;98769.82;;;9.71;97.75
56992;BME280;42885;49.754;18.636;2024-02-21T08:24:11;98768.71;;;9.57;97.05
56992;BME280;42885;49.754;18.636;2024-02-21T08:26:59;98774.41;;;9.29;99.95
56992;BME280;42885;49.754;18.636;2024-02-21T08:29:49;98764.56;;;9.62;99.41
56992;BME280;42885;49.754;18.636;2024-02-21T08:32:38;98759.44;;;9.69;99.18
56992;BME280;42885;49.754;18.636;2024-02-21T08:35:28;98755.43;;;9.53;98.66
56992;BME280;42885;49.754;18.636;2024-02-21T08:38:17;98756.67;;;9.63;98.88
56992;BME280;42885;49.754;18.636;2024-02-21T08:41:06;98746.84;;;9.69;99.17
56992;BME280;42885;49.754;18.636;2024-02-21T08:43:55;98746.77;;;9.79;97.30
56992;BME280;42885;49.754;18.636;2024-02-21T08:46:45;98734.94;;;9.81;95.18
56992;BME280;42885;49.754;18.636;2024-02-21T08:49:34;98734.69;;;9.76;94.21
56992;BME280;42885;49.754;18.636;2024-02-21T08:52:23;98735.30;;;9.73;95.18
56992;BME280;42885;49.754;18.636;2024-02-21T08:55:12;98738.23;;;10.02;94.13
56992;BME280;42885;49.754;18.636;2024-02-21T08:58:01;98729.52;;;10.28;91.06
56992;BME280;42885;49.754;18.636;2024-02-21T09:00:53;98734.60;;;10.13;88.03
56992;BME280;42885;49.754;18.636;2024-02-21T09:03:42;98729.85;;;10.13;88.76
56992;BME280;42885;49.754;18.636;2024-02-21T09:06:31;98727.94;;;9.72;86.88
56992;BME280;42885;49.754;18.636;2024-02-21T09:09:20;98729.86;;;9.86;87.77
56992;BME280;42885;49.754;18.636;2024-02-21T09:12:09;98733.23;;;10.15;87.16
56992;BME280;42885;49.754;18.636;2024-02-21T09:14:59;98733.95;;;10.35;84.28
56992;BME280;42885;49.754;18.636;2024-02-21T09:17:48;98735.67;;;10.44;85.99
56992;BME280;42885;49.754;18.636;2024-02-21T09:20:38;98735.91;;;10.13;82.47
56992;BME280;42885;49.754;18.636;2024-02-21T09:23:27;98734.69;;;10.63;83.95
56992;BME280;42885;49.754;18.636;2024-02-21T09:26:17;98734.30;;;10.19;82.31
56992;BME280;42885;49.754;18.636;2024-02-21T09:29:07;98732.09;;;10.37;81.19
56992;BME280;42885;49.754;18.636;2024-02-21T09:31:56;98730.74;;;10.47;80.56
56992;BME280;42885;49.754;18.636;2024-02-21T09:34:46;98726.77;;;10.65;79.70
56992;BME280;42885;49.754;18.636;2024-02-21T09:37:35;98725.33;;;10.75;76.16
56992;BME280;42885;49.754;18.636;2024-02-21T09:40:25;98723.14;;;10.83;73.40
56992;BME280;42885;49.754;18.636;2024-02-21T09:43:16;98717.48;;;10.91;73.08
56992;BME280;42885;49.754;18.636;2024-02-21T09:46:06;98718.23;;;10.77;71.11
56992;BME280;42885;49.754;18.636;2024-02-21T09:49:13;98721.41;;;10.91;68.46
56992;BME280;42885;49.754;18.636;2024-02-21T09:52:01;98726.04;;;11.50;67.17
56992;BME280;42885;49.754;18.636;2024-02-21T09:54:54;98723.09;;;11.71;66.08
56992;BME280;42885;49.754;18.636;2024-02-21T09:57:45;98720.23;;;11.83;64.78
56992;BME280;42885;49.754;18.636;2024-02-21T10:00:38;98726.86;;;11.27;62.95
56992;BME280;42885;49.754;18.636;2024-02-21T10:03:27;98718.41;;;10.90;63.31
56992;BME280;42885;49.754;18.636;2024-02-21T10:06:17;98725.48;;;11.29;64.19
56992;BME280;42885;49.754;18.636;2024-02-21T10:09:07;98719.08;;;11.26;64.24
56992;BME280;42885;49.754;18.636;2024-02-21T10:11:56;98714.02;;;11.46;63.42
56992;BME280;42885;49.754;18.636;2024-02-21T10:14:46;98709.11;;;11.56;62.51
56992;BME280;42885;49.754;18.636;2024-02-21T10:17:34;98707.19;;;11.67;61.56
56992;BME280;42885;49.754;18.636;2024-02-21T10:20:24;98698.17;;;11.64;61.54
56992;BME280;42885;49.754;18.636;2024-02-21T10:23:13;98703.27;;;11.81;60.72
56992;BME280;42885;49.754;18.636;2024-02-21T10:26:05;98699.72;;;11.75;60.45
56992;BME280;42885;49.754;18.636;2024-02-21T10:28:55;98700.29;;;11.88;60.25
56992;BME280;42885;49.754;18.636;2024-02-21T10:31:45;98692.78;;;11.81;60.23
56992;BME280;42885;49.754;18.636;2024-02-21T10:34:36;98687.00;;;11.98;60.10
56992;BME280;42885;49.754;18.636;2024-02-21T10:37:25;98682.94;;;12.37;61.01
56992;BME280;42885;49.754;18.636;2024-02-21T10:40:15;98680.14;;;12.33;59.87
56992;BME280;42885;49.754;18.636;2024-02-21T10:43:03;98682.93;;;12.23;59.31
56992;BME280;42885;49.754;18.636;2024-02-21T10:45:56;98677.59;;;12.17;60.38
56992;BME280;42885;49.754;18.636;2024-02-21T10:48:48;98677.28;;;12.00;60.24
56992;BME280;42885;49.754;18.636;2024-02-21T10:51:41;98671.69;;;12.21;59.68
56992;BME280;42885;49.754;18.636;2024-02-21T10:57:35;98678.34;;;12.19;60.89
56992;BME280;42885;49.754;18.636;2024-02-21T11:00:26;98677.05;;;11.81;60.85
56992;BME280;42885;49.754;18.636;2024-02-21T11:03:18;98674.41;;;11.67;62.18
56992;BME280;42885;49.754;18.636;2024-02-21T11:06:07;98663.91;;;11.60;62.64
56992;BME280;42885;49.754;18.636;2024-02-21T11:11:51;98659.45;;;11.76;64.28
56992;BME280;42885;49.754;18.636;2024-02-21T11:14:40;98660.91;;;12.11;63.50
56992;BME280;42885;49.754;18.636;2024-02-21T11:17:30;98658.15;;;11.83;63.11
56992;BME280;42885;49.754;18.636;2024-02-21T11:20:20;98651.95;;;11.77;63.16
56992;BME280;42885;49.754;18.636;2024-02-21T11:23:09;98645.87;;;11.84;64.05
56992;BME280;42885;49.754;18.636;2024-02-21T11:26:07;98650.95;;;11.56;61.94
56992;BME280;42885;49.754;18.636;2024-02-21T11:29:00;98639.89;;;11.89;62.20
56992;BME280;42885;49.754;18.636;2024-02-21T11:31:51;98639.41;;;11.75;61.65
56992;BME280;42885;49.754;18.636;2024-02-21T11:34:58;98642.39;;;11.69;61.08
56992;BME280;42885;49.754;18.636;2024-02-21T11:37:51;98633.78;;;11.89;61.63
56992;BME280;42885;49.754;18.636;2024-02-21T11:40:44;98632.25;;;11.63;61.02
56992;BME280;42885;49.754;18.636;2024-02-21T11:43:32;98629.68;;;11.39;61.91
56992;BME280;42885;49.754;18.636;2024-02-21T11:46:21;98622.00;;;11.43;62.04
56992;BME280;42885;49.754;18.636;2024-02-21T11:49:11;98624.50;;;11.31;61.94
56992;BME280;42885;49.754;18.636;2024-02-21T11:52:02;98623.75;;;11.28;62.65
56992;BME280;42885;49.754;18.636;2024-02-21T11:54:54;98622.64;;;11.09;63.08
56992;BME280;42885;49.754;18.636;2024-02-21T11:57:45;98617.59;;;11.06;64.99
56992;BME280;42885;49.754;18.636;2024-02-21T12:00:34;98623.72;;;11.21;66.46
56992;BME280;42885;49.754;18.636;2024-02-21T12:03:24;98618.79;;;11.00;67.70
56992;BME280;42885;49.754;18.636;2024-02-21T12:06:13;98616.44;;;11.03;71.47
56992;BME280;42885;49.754;18.636;2024-02-21T12:09:02;98615.09;;;10.88;71.30
56992;BME280;42885;49.754;18.636;2024-02-21T12:12:01;98618.59;;;10.64;77.01
56992;BME280;42885;49.754;18.636;2024-02-21T12:14:56;98608.33;;;10.52;80.77
56992;BME280;42885;49.754;18.636;2024-02-21T12:17:48;98610.18;;;10.66;81.88
56992;BME280;42885;49.754;18.636;2024-02-21T12:20:39;98602.72;;;10.51;83.98
56992;BME280;42885;49.754;18.636;2024-02-21T12:23:29;98597.81;;;10.45;83.56
56992;BME280;42885;49.754;18.636;2024-02-21T12:26:19;98605.43;;;10.66;86.16
56992;BME280;42885;49.754;18.636;2024-02-21T12:29:08;98599.28;;;10.51;88.38
56992;BME280;42885;49.754;18.636;2024-02-21T12:32:00;98601.84;;;10.35;87.93
56992;BME280;42885;49.754;18.636;2024-02-21T12:34:49;98596.78;;;10.31;89.76
56992;BME280;42885;49.754;18.636;2024-02-21T12:37:40;98586.34;;;10.48;89.10
56992;BME280;42885;49.754;18.636;2024-02-21T12:40:28;98588.77;;;10.43;89.17
56992;BME280;42885;49.754;18.636;2024-02-21T12:43:18;98590.02;;;10.52;92.34
56992;BME280;42885;49.754;18.636;2024-02-21T12:46:08;98588.58;;;10.22;94.25
56992;BME280;42885;49.754;18.636;2024-02-21T12:48:57;98585.13;;;10.37;95.44
56992;BME280;42885;49.754;18.636;2024-02-21T12:51:47;98581.11;;;10.48;96.22
56992;BME280;42885;49.754;18.636;2024-02-21T12:54:35;98582.27;;;10.26;97.06
56992;BME280;42885;49.754;18.636;2024-02-21T12:57:25;98580.43;;;10.19;98.17
56992;BME280;42885;49.754;18.636;2024-02-21T13:00:15;98575.17;;;10.28;100.00
56992;BME280;42885;49.754;18.636;2024-02-21T13:03:04;98565.34;;;10.24;100.00
56992;BME280;42885;49.754;18.636;2024-02-21T13:05:54;98567.63;;;10.30;100.00
56992;BME280;42885;49.754;18.636;2024-02-21T13:08:43;98559.81;;;10.22;100.00
56992;BME280;42885;49.754;18.636;2024-02-21T13:11:34;98551.13;;;10.21;100.00
56992;BME280;42885;49.754;18.636;2024-02-21T13:14:23;98559.48;;;10.28;100.00
56992;BME280;42885;49.754;18.636;2024-02-21T13:17:12;98551.94;;;10.30;100.00
56992;BME280;42885;49.754;18.636;2024-02-21T13:20:02;98550.09;;;10.24;100.00
56992;BME280;42885;49.754;18.636;2024-02-21T13:22:53;98549.42;;;10.20;100.00
56992;BME280;42885;49.754;18.636;2024-02-21T13:25:43;98549.52;;;10.18;100.00
56992;BME280;42885;49.754;18.636;2024-02-21T13:28:35;98550.55;;;10.07;100.00
56992;BME280;42885;49.754;18.636;2024-02-21T13:31:25;98549.15;;;10.17;100.00
56992;BME280;42885;49.754;18.636;2024-02-21T13:34:14;98555.78;;;10.07;100.00
56992;BME280;42885;49.754;18.636;2024-02-21T13:37:03;98558.70;;;10.10;100.00
56992;BME280;42885;49.754;18.636;2024-02-21T13:39:54;98559.69;;;9.91;100.00
56992;BME280;42885;49.754;18.636;2024-02-21T13:42:44;98557.19;;;10.22;100.00
56992;BME280;42885;49.754;18.636;2024-02-21T13:45:34;98552.41;;;9.80;100.00
56992;BME280;42885;49.754;18.636;2024-02-21T13:48:22;98547.50;;;9.99;100.00
56992;BME280;42885;49.754;18.636;2024-02-21T13:51:13;98548.55;;;9.87;100.00
56992;BME280;42885;49.754;18.636;2024-02-21T13:54:05;98542.63;;;9.93;100.00
56992;BME280;42885;49.754;18.636;2024-02-21T13:56:55;98534.42;;;9.83;100.00
56992;BME280;42885;49.754;18.636;2024-02-21T13:59:44;98527.39;;;10.08;100.00
56992;BME280;42885;49.754;18.636;2024-02-21T14:02:33;98524.27;;;10.01;100.00
56992;BME280;42885;49.754;18.636;2024-02-21T14:05:22;98524.09;;;9.88;100.00
56992;BME280;42885;49.754;18.636;2024-02-21T14:08:11;98522.81;;;10.21;100.00
56992;BME280;42885;49.754;18.636;2024-02-21T14:11:00;98517.02;;;10.23;100.00
56992;BME280;42885;49.754;18.636;2024-02-21T14:13:50;98519.55;;;10.08;100.00
56992;BME280;42885;49.754;18.636;2024-02-21T14:16:38;98511.38;;;10.14;100.00
56992;BME280;42885;49.754;18.636;2024-02-21T14:19:28;98502.17;;;10.07;100.00
56992;BME280;42885;49.754;18.636;2024-02-21T14:22:18;98509.56;;;10.08;100.00
56992;BME280;42885;49.754;18.636;2024-02-21T14:25:08;98493.17;;;10.13;100.00
56992;BME280;42885;49.754;18.636;2024-02-21T14:27:58;98495.00;;;10.11;100.00
56992;BME280;42885;49.754;18.636;2024-02-21T14:30:49;98492.47;;;9.93;100.00
56992;BME280;42885;49.754;18.636;2024-02-21T14:33:39;98493.70;;;10.11;100.00
56992;BME280;42885;49.754;18.636;2024-02-21T14:36:29;98494.05;;;10.04;100.00
56992;BME280;42885;49.754;18.636;2024-02-21T14:39:18;98485.77;;;10.12;100.00
56992;BME280;42885;49.754;18.636;2024-02-21T14:42:08;98476.11;;;10.22;100.00
56992;BME280;42885;49.754;18.636;2024-02-21T14:45:00;98479.55;;;10.47;100.00
56992;BME280;42885;49.754;18.636;2024-02-21T14:47:53;98460.40;;;10.54;98.92
56992;BME280;42885;49.754;18.636;2024-02-21T14:50:43;98455.42;;;10.80;97.36
56992;BME280;42885;49.754;18.636;2024-02-21T14:53:32;98450.30;;;10.55;94.83
56992;BME280;42885;49.754;18.636;2024-02-21T14:56:22;98451.08;;;10.64;93.71